createdAt,value
2022-08-28T00:00:38.797Z,18.90
2022-08-28T00:03:07.097Z,18.90
2022-08-28T00:05:36.101Z,18.90
2022-08-28T00:08:04.773Z,18.90
2022-08-28T00:10:34.246Z,18.90
2022-08-28T00:13:02.325Z,18.80
2022-08-28T00:15:34.644Z,18.80
2022-08-28T00:18:03.547Z,18.90
2022-08-28T00:20:34.314Z,18.90
2022-08-28T00:23:02.608Z,19.00
2022-08-28T00:25:31.930Z,18.90
2022-08-28T00:28:05.232Z,18.90
2022-08-28T00:30:40.223Z,18.90
2022-08-28T00:33:10.722Z,18.90
2022-08-28T00:35:40.578Z,19.00
2022-08-28T00:38:10.032Z,19.00
2022-08-28T00:40:38.580Z,19.00
2022-08-28T00:43:10.599Z,19.00
2022-08-28T00:45:40.003Z,19.10
2022-08-28T00:48:09.217Z,19.10
2022-08-28T00:50:52.045Z,19.10
2022-08-28T00:53:21.066Z,19.10
2022-08-28T00:55:52.248Z,19.10
2022-08-28T00:58:21.649Z,19.10
2022-08-28T01:00:49.911Z,19.00
2022-08-28T01:03:18.040Z,19.00
2022-08-28T01:05:49.200Z,19.10
2022-08-28T01:08:18.686Z,19.10
2022-08-28T01:10:52.724Z,19.10
2022-08-28T01:13:23.286Z,19.10
2022-08-28T01:15:51.980Z,19.00
2022-08-28T01:18:22.253Z,19.00
2022-08-28T01:20:57.757Z,19.00
2022-08-28T01:23:42.338Z,19.00
2022-08-28T01:26:11.641Z,19.00
2022-08-28T01:28:40.257Z,19.00
2022-08-28T01:31:10.705Z,18.90
2022-08-28T01:33:40.482Z,18.90
2022-08-28T01:36:12.537Z,19.00
2022-08-28T01:38:43.555Z,19.00
2022-08-28T01:41:13.848Z,19.00
2022-08-28T01:43:42.947Z,19.00
2022-08-28T01:46:12.686Z,19.00
2022-08-28T01:48:43.444Z,19.00
2022-08-28T01:51:13.489Z,18.90
2022-08-28T01:53:45.193Z,18.90
2022-08-28T01:56:18.040Z,18.90
2022-08-28T01:58:47.990Z,19.00
2022-08-28T02:01:18.444Z,19.00
2022-08-28T02:03:46.961Z,18.90
2022-08-28T02:06:17.763Z,18.90
2022-08-28T02:08:49.680Z,18.90
2022-08-28T02:11:17.986Z,18.90
2022-08-28T02:13:45.927Z,18.90
2022-08-28T02:16:19.572Z,18.90
2022-08-28T02:18:48.869Z,19.00
2022-08-28T02:21:17.208Z,19.00
2022-08-28T02:23:47.338Z,18.90
2022-08-28T02:26:16.204Z,18.90
2022-08-28T02:28:44.145Z,18.90
2022-08-28T02:31:13.440Z,18.90
2022-08-28T02:33:43.546Z,18.90
2022-08-28T02:36:13.909Z,18.90
2022-08-28T02:38:42.420Z,18.90
2022-08-28T02:41:12.879Z,18.90
2022-08-28T02:43:41.385Z,18.90
2022-08-28T02:46:10.035Z,18.90
2022-08-28T02:48:40.327Z,18.80
2022-08-28T02:51:11.476Z,18.90
2022-08-28T02:53:40.121Z,18.80
2022-08-28T02:56:09.082Z,18.80
2022-08-28T02:58:40.321Z,18.80
2022-08-28T03:01:11.007Z,18.80
2022-08-28T03:03:40.880Z,18.80
2022-08-28T03:06:11.361Z,18.80
2022-08-28T03:08:39.845Z,18.70
2022-08-28T03:11:07.870Z,18.80
2022-08-28T03:13:35.949Z,18.60
2022-08-28T03:16:05.663Z,18.60
2022-08-28T03:18:34.195Z,18.70
2022-08-28T03:21:02.195Z,18.70
2022-08-28T03:23:31.349Z,18.70
2022-08-28T03:26:02.067Z,18.70
2022-08-28T03:28:32.208Z,18.80
2022-08-28T03:31:00.537Z,18.70
2022-08-28T03:33:29.940Z,18.70
2022-08-28T03:35:59.375Z,18.70
2022-08-28T03:38:27.605Z,18.70
2022-08-28T03:40:55.660Z,18.60
2022-08-28T03:43:25.788Z,18.60
2022-08-28T03:45:56.563Z,18.60
2022-08-28T03:48:24.982Z,18.60
2022-08-28T03:50:54.789Z,18.60
2022-08-28T03:53:24.526Z,18.60
2022-08-28T03:55:52.744Z,18.60
2022-08-28T03:58:21.088Z,18.60
2022-08-28T04:00:50.253Z,18.60
2022-08-28T04:03:18.776Z,18.60
2022-08-28T04:05:47.465Z,18.70
2022-08-28T04:08:18.802Z,18.70
2022-08-28T04:10:47.729Z,18.60
2022-08-28T04:13:17.482Z,18.60
2022-08-28T04:15:45.581Z,18.70
2022-08-28T04:18:13.865Z,18.70
2022-08-28T04:20:41.903Z,18.70
2022-08-28T04:23:15.798Z,18.60
2022-08-28T04:25:43.774Z,18.70
2022-08-28T04:28:12.209Z,18.60
2022-08-28T04:30:42.130Z,18.60
2022-08-28T04:33:10.509Z,18.60
2022-08-28T04:35:38.517Z,18.70
2022-08-28T04:38:06.969Z,18.70
2022-08-28T04:40:40.056Z,18.70
2022-08-28T04:43:08.898Z,18.60
2022-08-28T04:45:40.410Z,18.60
2022-08-28T04:48:11.408Z,18.70
2022-08-28T04:50:42.430Z,18.60
2022-08-28T04:53:11.070Z,18.70
2022-08-28T04:55:53.488Z,18.80
2022-08-28T04:58:24.066Z,18.70
2022-08-28T05:00:54.311Z,18.70
2022-08-28T05:03:22.977Z,18.70
2022-08-28T05:05:53.817Z,18.70
2022-08-28T05:08:24.608Z,18.70
2022-08-28T05:10:55.013Z,18.70
2022-08-28T05:13:23.583Z,18.70
2022-08-28T05:15:53.517Z,18.70
2022-08-28T05:18:25.408Z,18.80
2022-08-28T05:20:53.449Z,18.90
2022-08-28T05:23:25.708Z,18.90
2022-08-28T05:25:55.387Z,18.90
2022-08-28T05:28:23.814Z,19.00
2022-08-28T05:30:52.295Z,19.00
2022-08-28T05:33:20.888Z,19.10
2022-08-28T05:35:49.020Z,19.10
2022-08-28T05:38:17.961Z,19.10
2022-08-28T05:40:47.856Z,19.20
2022-08-28T05:43:18.513Z,19.20
2022-08-28T05:45:46.669Z,19.20
2022-08-28T05:48:16.109Z,19.20
2022-08-28T05:50:48.130Z,19.30
2022-08-28T05:53:17.515Z,19.20
2022-08-28T05:55:46.582Z,19.20
2022-08-28T05:58:31.170Z,19.20
2022-08-28T06:01:11.696Z,19.30
2022-08-28T06:03:40.687Z,19.20
2022-08-28T06:06:10.588Z,19.20
2022-08-28T06:08:39.167Z,19.10
2022-08-28T06:11:24.749Z,19.10
2022-08-28T06:13:54.572Z,19.20
2022-08-28T06:16:23.536Z,19.20
2022-08-28T06:18:51.901Z,19.40
2022-08-28T06:21:20.920Z,19.50
2022-08-28T06:24:20.973Z,19.70
2022-08-28T06:26:52.420Z,20.10
2022-08-28T06:29:22.527Z,20.30
2022-08-28T06:31:55.795Z,20.50
2022-08-28T06:34:24.389Z,20.60
2022-08-28T06:36:54.223Z,20.40
2022-08-28T06:39:23.415Z,20.60
2022-08-28T06:41:52.312Z,20.60
2022-08-28T06:44:23.038Z,20.40
2022-08-28T06:46:52.670Z,20.50
2022-08-28T06:49:20.845Z,20.70
2022-08-28T06:51:49.021Z,20.70
2022-08-28T06:54:22.251Z,20.70
2022-08-28T06:56:51.340Z,20.60
2022-08-28T06:59:19.456Z,20.50
2022-08-28T07:01:49.251Z,20.50
2022-08-28T07:04:17.585Z,20.50
2022-08-28T07:06:53.826Z,20.50
2022-08-28T07:09:23.210Z,20.50
2022-08-28T07:11:51.376Z,20.60
2022-08-28T07:14:19.730Z,20.60
2022-08-28T07:16:49.108Z,20.60
2022-08-28T07:19:17.467Z,20.70
2022-08-28T07:21:47.929Z,20.70
2022-08-28T07:24:17.406Z,20.80
2022-08-28T07:26:47.757Z,20.70
2022-08-28T07:29:16.085Z,20.90
2022-08-28T07:31:46.567Z,21.10
2022-08-28T07:34:17.428Z,21.10
2022-08-28T07:36:45.937Z,21.40
2022-08-28T07:39:15.878Z,21.60
2022-08-28T07:41:44.406Z,21.70
2022-08-28T07:44:31.564Z,21.90
2022-08-28T07:47:02.185Z,22.00
2022-08-28T07:49:33.641Z,22.10
2022-08-28T07:52:01.755Z,22.10
2022-08-28T07:54:29.719Z,22.10
2022-08-28T07:56:57.699Z,22.10
2022-08-28T07:59:25.745Z,22.40
2022-08-28T08:01:54.161Z,23.50
2022-08-28T08:04:24.434Z,24.70
2022-08-28T08:06:57.789Z,25.70
2022-08-28T08:09:27.248Z,25.80
2022-08-28T08:11:57.431Z,25.70
2022-08-28T08:14:25.899Z,25.30
2022-08-28T08:16:53.881Z,25.50
2022-08-28T08:19:22.141Z,25.40
2022-08-28T08:21:53.200Z,25.20
2022-08-28T08:24:26.370Z,25.20
2022-08-28T08:27:00.080Z,25.40
2022-08-28T08:29:31.261Z,26.40
2022-08-28T08:32:04.865Z,27.40
2022-08-28T08:34:33.292Z,28.20
2022-08-28T08:37:01.507Z,29.40
2022-08-28T08:39:31.838Z,30.30
2022-08-28T08:42:01.699Z,31.00
2022-08-28T08:44:34.421Z,31.30
2022-08-28T08:47:14.865Z,30.90
2022-08-28T08:49:51.121Z,31.50
2022-08-28T08:52:41.383Z,31.60
2022-08-28T08:55:24.210Z,32.10
2022-08-28T08:58:03.823Z,32.10
2022-08-28T09:00:37.729Z,32.30
2022-08-28T09:03:10.393Z,32.40
2022-08-28T09:05:44.992Z,32.30
2022-08-28T09:08:21.792Z,31.70
2022-08-28T09:11:01.116Z,30.90
2022-08-28T09:13:38.077Z,31.00
2022-08-28T09:16:17.462Z,31.20
2022-08-28T09:18:45.942Z,30.70
2022-08-28T09:21:29.304Z,30.80
2022-08-28T09:24:01.329Z,31.10
2022-08-28T09:26:35.814Z,30.90
2022-08-28T09:29:06.742Z,31.00
2022-08-28T09:31:37.729Z,30.90
2022-08-28T09:34:22.744Z,31.00
2022-08-28T09:36:51.156Z,31.30
2022-08-28T09:39:21.113Z,31.90
2022-08-28T09:42:16.726Z,31.50
2022-08-28T09:44:56.221Z,31.70
2022-08-28T09:47:48.702Z,31.70
2022-08-28T09:50:32.619Z,31.60
2022-08-28T09:53:15.097Z,32.10
2022-08-28T09:55:51.946Z,32.00
2022-08-28T09:58:23.308Z,32.10
2022-08-28T10:00:57.105Z,32.40
2022-08-28T10:03:31.675Z,32.50
2022-08-28T10:06:09.525Z,32.60
2022-08-28T10:08:55.265Z,31.70
2022-08-28T10:11:31.694Z,30.70
2022-08-28T10:14:08.761Z,30.20
2022-08-28T10:16:45.329Z,29.50
2022-08-28T10:19:23.282Z,28.60
2022-08-28T10:21:59.189Z,27.70
2022-08-28T10:24:44.231Z,27.60
2022-08-28T10:27:24.373Z,28.00
2022-08-28T10:30:05.167Z,28.00
2022-08-28T10:33:02.357Z,27.70
2022-08-28T10:35:39.792Z,28.10
2022-08-28T10:38:12.677Z,27.80
2022-08-28T10:40:45.903Z,27.80
2022-08-28T10:43:18.269Z,27.70
2022-08-28T10:45:51.512Z,27.50
2022-08-28T10:48:26.024Z,27.20
2022-08-28T10:50:57.066Z,27.20
2022-08-28T10:53:31.397Z,27.00
2022-08-28T10:56:04.000Z,27.20
2022-08-28T10:58:35.319Z,27.20
2022-08-28T11:01:08.769Z,27.40
2022-08-28T11:03:42.486Z,27.00
2022-08-28T11:06:16.163Z,27.00
2022-08-28T11:08:53.055Z,26.80
2022-08-28T11:11:44.173Z,26.70
2022-08-28T11:14:25.454Z,26.30
2022-08-28T11:16:58.059Z,26.50
2022-08-28T11:19:59.519Z,26.60
2022-08-28T11:22:31.133Z,26.60
2022-08-28T11:25:09.406Z,26.50
2022-08-28T11:27:39.172Z,26.20
2022-08-28T11:30:34.248Z,26.00
2022-08-28T11:33:07.431Z,26.00
2022-08-28T11:35:43.858Z,26.00
2022-08-28T11:38:12.373Z,26.20
2022-08-28T11:40:57.968Z,26.20
2022-08-28T11:43:36.502Z,26.30
2022-08-28T11:46:27.145Z,26.40
2022-08-28T11:48:58.611Z,26.40
2022-08-28T11:51:49.746Z,26.30
2022-08-28T11:54:32.941Z,26.10
2022-08-28T11:57:08.753Z,25.90
2022-08-28T12:00:06.437Z,25.60
2022-08-28T12:02:48.964Z,25.80
2022-08-28T12:05:45.209Z,26.00
2022-08-28T12:08:14.891Z,26.20
2022-08-28T12:10:59.265Z,26.40
2022-08-28T12:13:58.264Z,26.60
2022-08-28T12:16:26.854Z,26.70
2022-08-28T12:19:02.655Z,27.00
2022-08-28T12:21:38.640Z,27.00
2022-08-28T12:24:19.832Z,27.20
2022-08-28T12:26:54.115Z,27.10
2022-08-28T12:29:31.678Z,27.10
2022-08-28T12:32:28.487Z,27.20
2022-08-28T12:35:18.786Z,27.40
2022-08-28T12:38:01.474Z,27.30
2022-08-28T12:40:35.026Z,27.30
2022-08-28T12:43:05.479Z,27.10
2022-08-28T12:45:39.446Z,27.00
2022-08-28T12:48:16.286Z,26.90
2022-08-28T12:50:45.482Z,26.60
2022-08-28T12:53:17.503Z,26.40
2022-08-28T12:55:46.847Z,26.20
2022-08-28T12:58:16.260Z,26.20
2022-08-28T13:00:56.255Z,26.30
2022-08-28T13:03:24.393Z,26.40
2022-08-28T13:05:59.386Z,26.60
2022-08-28T13:08:29.265Z,26.80
2022-08-28T13:10:58.541Z,26.80
2022-08-28T13:13:35.410Z,26.80
2022-08-28T13:16:05.027Z,26.60
2022-08-28T13:18:50.206Z,26.60
2022-08-28T13:21:37.222Z,26.70
2022-08-28T13:24:27.180Z,26.80
2022-08-28T13:27:05.123Z,26.60
2022-08-28T13:29:33.930Z,26.70
2022-08-28T13:32:04.795Z,27.00
2022-08-28T13:34:35.385Z,27.00
2022-08-28T13:37:14.721Z,27.30
2022-08-28T13:39:49.926Z,27.40
2022-08-28T13:42:18.911Z,27.40
2022-08-28T13:44:50.379Z,27.30
2022-08-28T13:47:18.902Z,27.10
2022-08-28T13:49:47.409Z,27.00
2022-08-28T13:52:15.438Z,27.00
2022-08-28T13:54:45.328Z,27.10
2022-08-28T13:57:16.060Z,27.20
2022-08-28T13:59:44.225Z,27.20
2022-08-28T14:02:32.281Z,27.10
2022-08-28T14:05:00.900Z,27.20
2022-08-28T14:07:29.302Z,27.20
2022-08-28T14:09:57.471Z,27.30
2022-08-28T14:12:32.761Z,27.40
2022-08-28T14:15:02.042Z,27.40
2022-08-28T14:17:30.147Z,27.30
2022-08-28T14:19:59.771Z,27.30
2022-08-28T14:22:28.380Z,27.30
2022-08-28T14:24:56.502Z,27.20
2022-08-28T14:27:26.035Z,27.20
2022-08-28T14:29:54.245Z,27.00
2022-08-28T14:32:22.538Z,26.80
2022-08-28T14:34:51.426Z,26.60
2022-08-28T14:37:19.609Z,26.40
2022-08-28T14:39:47.938Z,26.30
2022-08-28T14:42:15.992Z,26.30
2022-08-28T14:44:45.281Z,26.30
2022-08-28T14:47:13.390Z,26.40
2022-08-28T14:49:42.079Z,26.60
2022-08-28T14:52:20.253Z,26.70
2022-08-28T14:55:12.179Z,26.70
2022-08-28T14:57:54.140Z,26.60
2022-08-28T15:00:24.021Z,26.60
2022-08-28T15:02:55.360Z,26.40
2022-08-28T15:05:28.364Z,26.50
2022-08-28T15:07:56.960Z,26.60
2022-08-28T15:10:25.712Z,26.60
2022-08-28T15:12:53.732Z,26.60
2022-08-28T15:15:23.117Z,26.50
2022-08-28T15:17:51.094Z,26.50
2022-08-28T15:20:19.232Z,26.40
2022-08-28T15:22:47.268Z,26.40
2022-08-28T15:25:15.522Z,26.40
2022-08-28T15:27:43.490Z,26.40
2022-08-28T15:30:12.500Z,26.30
2022-08-28T15:32:44.540Z,26.30
2022-08-28T15:35:12.813Z,26.30
2022-08-28T15:37:40.786Z,26.30
2022-08-28T15:40:28.029Z,26.30
2022-08-28T15:42:56.056Z,26.20
2022-08-28T15:45:24.264Z,26.10
2022-08-28T15:47:54.195Z,26.00
2022-08-28T15:50:23.162Z,25.80
2022-08-28T15:52:51.147Z,25.80
2022-08-28T15:55:21.696Z,25.90
2022-08-28T15:57:49.902Z,25.90
2022-08-28T16:00:18.123Z,25.90
2022-08-28T16:02:46.105Z,25.90
2022-08-28T16:05:15.843Z,25.80
2022-08-28T16:07:44.378Z,25.80
2022-08-28T16:10:13.783Z,25.60
2022-08-28T16:12:41.800Z,25.50
2022-08-28T16:15:11.187Z,25.60
2022-08-28T16:17:39.185Z,25.50
2022-08-28T16:20:12.895Z,25.30
2022-08-28T16:22:43.152Z,25.30
2022-08-28T16:25:12.661Z,25.30
2022-08-28T16:27:40.968Z,25.30
2022-08-28T16:30:15.891Z,25.40
2022-08-28T16:32:46.799Z,25.40
2022-08-28T16:35:15.845Z,25.30
2022-08-28T16:37:45.216Z,25.30
2022-08-28T16:40:14.905Z,25.30
2022-08-28T16:42:51.695Z,25.20
2022-08-28T16:45:20.452Z,25.10
2022-08-28T16:47:48.976Z,25.10
2022-08-28T16:50:18.302Z,25.00
2022-08-28T16:52:47.776Z,24.90
2022-08-28T16:55:16.379Z,24.90
2022-08-28T16:57:44.922Z,24.90
2022-08-28T17:00:14.112Z,24.90
2022-08-28T17:02:42.440Z,24.90
2022-08-28T17:05:12.763Z,24.90
2022-08-28T17:07:40.888Z,24.80
2022-08-28T17:10:12.476Z,24.80
2022-08-28T17:12:40.510Z,24.70
2022-08-28T17:15:11.385Z,24.70
2022-08-28T17:17:40.060Z,24.70
2022-08-28T17:20:30.558Z,24.60
2022-08-28T17:22:57.637Z,24.50
2022-08-28T17:25:27.652Z,24.40
2022-08-28T17:27:55.764Z,24.30
2022-08-28T17:30:23.906Z,24.30
2022-08-28T17:32:52.036Z,24.20
2022-08-28T17:35:20.178Z,24.10
2022-08-28T17:37:50.627Z,24.10
2022-08-28T17:40:19.295Z,24.10
2022-08-28T17:42:51.618Z,23.90
2022-08-28T17:45:19.732Z,23.90
2022-08-28T17:47:47.755Z,23.80
2022-08-28T17:50:16.288Z,23.70
2022-08-28T17:52:44.308Z,23.60
2022-08-28T17:55:12.280Z,23.50
2022-08-28T17:57:40.644Z,23.40
2022-08-28T18:00:14.110Z,23.40
2022-08-28T18:02:42.098Z,23.40
2022-08-28T18:05:12.296Z,23.40
2022-08-28T18:07:40.385Z,23.40
2022-08-28T18:10:09.483Z,23.40
2022-08-28T18:12:37.472Z,23.30
2022-08-28T18:15:07.481Z,23.20
2022-08-28T18:17:38.485Z,23.10
2022-08-28T18:20:07.791Z,23.00
2022-08-28T18:22:35.853Z,22.90
2022-08-28T18:25:04.401Z,22.80
2022-08-28T18:27:34.947Z,22.70
2022-08-28T18:30:03.803Z,22.70
2022-08-28T18:32:31.927Z,22.60
2022-08-28T18:35:01.215Z,22.60
2022-08-28T18:37:29.844Z,22.60
2022-08-28T18:39:57.823Z,22.50
2022-08-28T18:42:25.868Z,22.40
2022-08-28T18:44:53.843Z,22.50
2022-08-28T18:47:22.053Z,22.30
2022-08-28T18:49:50.017Z,22.20
2022-08-28T18:52:19.449Z,22.20
2022-08-28T18:54:47.457Z,22.10
2022-08-28T18:57:18.368Z,22.10
2022-08-28T18:59:47.529Z,22.00
2022-08-28T19:02:16.857Z,22.00
2022-08-28T19:04:45.457Z,22.00
2022-08-28T19:07:13.598Z,22.00
2022-08-28T19:09:43.056Z,21.90
2022-08-28T19:12:11.012Z,21.80
2022-08-28T19:14:38.994Z,21.80
2022-08-28T19:19:35.394Z,21.60
2022-08-28T19:22:04.860Z,21.50
2022-08-28T19:24:34.524Z,21.50
2022-08-28T19:27:03.856Z,21.50
2022-08-28T19:29:31.887Z,21.40
2022-08-28T19:32:00.295Z,21.40
2022-08-28T19:34:29.688Z,21.40
2022-08-28T19:36:57.689Z,21.40
2022-08-28T19:39:26.139Z,21.30
2022-08-28T19:41:55.008Z,21.20
2022-08-28T19:44:24.557Z,21.10
2022-08-28T19:46:52.509Z,21.10
2022-08-28T19:49:20.713Z,21.10
2022-08-28T19:51:48.672Z,21.10
2022-08-28T19:54:16.621Z,21.00
2022-08-28T19:56:44.560Z,20.90
2022-08-28T19:59:12.524Z,20.90
2022-08-28T20:01:46.236Z,20.80
2022-08-28T20:04:17.491Z,20.80
2022-08-28T20:06:46.198Z,20.80
2022-08-28T20:09:17.205Z,20.80
2022-08-28T20:11:46.888Z,20.80
2022-08-28T20:14:16.503Z,20.80
2022-08-28T20:16:48.584Z,20.70
2022-08-28T20:19:17.780Z,20.60
2022-08-28T20:21:48.966Z,20.50
2022-08-28T20:24:20.278Z,20.50
2022-08-28T20:26:48.505Z,20.50
2022-08-28T20:29:17.210Z,20.40
2022-08-28T20:31:48.151Z,20.40
2022-08-28T20:34:18.558Z,20.30
2022-08-28T20:36:47.254Z,20.40
2022-08-28T20:39:16.611Z,20.30
2022-08-28T20:41:45.899Z,20.30
2022-08-28T20:44:16.724Z,20.20
2022-08-28T20:46:51.169Z,20.20
2022-08-28T20:49:22.386Z,20.10
2022-08-28T20:52:01.106Z,20.00
2022-08-28T20:54:31.904Z,19.90
2022-08-28T20:57:02.906Z,19.80
2022-08-28T20:59:39.464Z,19.80
2022-08-28T21:02:12.126Z,19.70
2022-08-28T21:04:41.741Z,19.60
2022-08-28T21:07:10.270Z,19.50
2022-08-28T21:10:04.072Z,19.40
2022-08-28T21:12:26.194Z,19.40
2022-08-28T21:14:54.132Z,19.30
2022-08-28T21:17:29.051Z,19.30
2022-08-28T21:19:59.965Z,19.20
2022-08-28T21:22:27.956Z,19.20
2022-08-28T21:24:56.913Z,19.10
2022-08-28T21:27:24.906Z,19.00
2022-08-28T21:29:56.060Z,19.00
2022-08-28T21:32:25.682Z,19.00
2022-08-28T21:34:54.459Z,18.90
2022-08-28T21:37:22.898Z,18.80
2022-08-28T21:39:51.171Z,18.80
2022-08-28T21:42:19.455Z,18.80
2022-08-28T21:44:51.569Z,18.80
2022-08-28T21:47:22.220Z,18.80
2022-08-28T21:49:52.447Z,18.70
2022-08-28T21:52:21.825Z,18.70
2022-08-28T21:54:50.277Z,18.40
2022-08-28T21:57:18.607Z,18.60
2022-08-28T21:59:46.557Z,18.50
2022-08-28T22:02:14.770Z,18.50
2022-08-28T22:04:42.929Z,18.50
2022-08-28T22:07:13.954Z,18.50
2022-08-28T22:09:42.993Z,18.50
2022-08-28T22:12:11.504Z,18.60
2022-08-28T22:14:39.630Z,18.60
2022-08-28T22:17:11.608Z,18.60
2022-08-28T22:19:40.389Z,18.60
2022-08-28T22:22:26.380Z,18.60
2022-08-28T22:24:56.308Z,18.50
2022-08-28T22:27:24.391Z,18.40
2022-08-28T22:29:52.377Z,18.40
2022-08-28T22:32:25.312Z,18.30
2022-08-28T22:34:54.070Z,18.30
2022-08-28T22:37:22.910Z,18.30
2022-08-28T22:39:50.935Z,18.20
2022-08-28T22:42:20.523Z,18.20
2022-08-28T22:44:48.556Z,18.20
2022-08-28T22:47:16.541Z,18.20
2022-08-28T22:49:47.133Z,18.20
2022-08-28T22:52:15.315Z,18.10
2022-08-28T22:54:43.520Z,18.10
2022-08-28T22:57:11.654Z,18.10
2022-08-28T22:59:41.774Z,18.10
2022-08-28T23:02:10.025Z,18.00
2022-08-28T23:04:37.973Z,17.90
2022-08-28T23:07:06.772Z,17.90
2022-08-28T23:09:35.960Z,17.90
2022-08-28T23:12:04.960Z,17.90
2022-08-28T23:14:32.924Z,17.90
2022-08-28T23:17:02.261Z,17.90
2022-08-28T23:19:30.420Z,17.90
2022-08-28T23:21:58.876Z,17.80
2022-08-28T23:24:26.831Z,17.70
2022-08-28T23:26:54.764Z,17.70
2022-08-28T23:29:22.714Z,17.60
2022-08-28T23:31:51.066Z,17.60
2022-08-28T23:34:20.426Z,17.70
2022-08-28T23:36:48.781Z,17.70
2022-08-28T23:39:16.828Z,17.60
2022-08-28T23:41:44.880Z,17.60
2022-08-28T23:44:14.918Z,17.50
2022-08-28T23:46:42.961Z,17.50
2022-08-28T23:49:11.806Z,17.40
2022-08-28T23:51:41.693Z,17.50
2022-08-28T23:54:10.844Z,17.50
2022-08-28T23:56:39.389Z,17.50
2022-08-28T23:59:07.419Z,17.50
